createdAt,value
2018-11-02T00:00:59.566Z,17.70
2018-11-02T00:01:59.595Z,14.90
2018-11-02T00:02:59.545Z,15.90
2018-11-02T00:03:59.533Z,15.20
2018-11-02T00:04:59.524Z,16.90
2018-11-02T00:05:59.515Z,16.20
2018-11-02T00:06:59.503Z,15.00
2018-11-02T00:07:59.501Z,15.60
2018-11-02T00:08:59.481Z,16.00
2018-11-02T00:09:59.471Z,15.50
2018-11-02T00:10:59.458Z,16.10
2018-11-02T00:11:59.463Z,16.10
2018-11-02T00:12:59.436Z,15.90
2018-11-02T00:13:59.455Z,15.60
2018-11-02T00:14:59.416Z,17.00
2018-11-02T00:15:59.407Z,15.80
2018-11-02T00:16:59.395Z,15.20
2018-11-02T00:17:59.384Z,15.50
2018-11-02T00:18:59.374Z,15.40
2018-11-02T00:19:59.375Z,16.10
2018-11-02T00:20:59.353Z,15.30
2018-11-02T00:21:59.341Z,15.80
2018-11-02T00:22:59.332Z,17.10
2018-11-02T00:23:59.319Z,15.10
2018-11-02T00:24:59.335Z,16.20
2018-11-02T00:25:59.299Z,15.70
2018-11-02T00:26:59.289Z,16.20
2018-11-02T00:27:59.284Z,16.50
2018-11-02T00:28:59.269Z,16.40
2018-11-02T00:29:59.259Z,17.20
2018-11-02T00:30:59.265Z,16.30
2018-11-02T00:31:59.288Z,15.30
2018-11-02T00:32:59.225Z,15.10
2018-11-02T00:33:59.227Z,17.10
2018-11-02T00:34:59.235Z,16.40
2018-11-02T00:35:59.193Z,17.40
2018-11-02T00:36:59.195Z,17.20
2018-11-02T00:37:59.169Z,14.70
2018-11-02T00:38:59.160Z,15.70
2018-11-02T00:39:59.148Z,15.10
2018-11-02T00:40:59.166Z,15.20
2018-11-02T00:41:59.128Z,15.70
2018-11-02T00:42:59.116Z,15.40
2018-11-02T00:43:59.173Z,15.30
2018-11-02T00:44:59.095Z,14.70
2018-11-02T00:45:59.083Z,14.80
2018-11-02T00:46:59.083Z,14.60
2018-11-02T00:47:59.061Z,15.10
2018-11-02T00:48:59.050Z,15.00
2018-11-02T00:49:59.052Z,13.90
2018-11-02T00:50:59.028Z,14.70
2018-11-02T00:51:59.016Z,13.40
2018-11-02T00:52:59.007Z,12.90
2018-11-02T00:53:59.079Z,14.30
2018-11-02T00:54:58.984Z,12.40
2018-11-02T00:55:58.974Z,12.20
2018-11-02T00:56:58.963Z,12.30
2018-11-02T00:57:58.952Z,12.30
2018-11-02T00:58:58.943Z,11.20
2018-11-02T00:59:58.963Z,11.50
2018-11-02T01:00:58.919Z,10.60
2018-11-02T01:01:58.909Z,11.80
2018-11-02T01:02:58.899Z,10.40
2018-11-02T01:03:58.887Z,10.50
2018-11-02T01:04:58.890Z,8.90
2018-11-02T01:05:58.887Z,9.30
2018-11-02T01:06:58.855Z,9.50
2018-11-02T01:07:58.844Z,10.20
2018-11-02T01:08:58.832Z,8.90
2018-11-02T01:09:58.822Z,8.60
2018-11-02T01:10:58.836Z,6.20
2018-11-02T01:11:58.801Z,8.70
2018-11-02T01:12:58.789Z,8.20
2018-11-02T01:13:58.778Z,8.90
2018-11-02T01:14:58.767Z,8.50
2018-11-02T01:15:58.756Z,7.60
2018-11-02T01:16:58.759Z,6.90
2018-11-02T01:17:58.733Z,7.80
2018-11-02T01:18:58.726Z,8.00
2018-11-02T01:19:58.712Z,8.10
2018-11-02T01:20:58.774Z,6.70
2018-11-02T01:21:58.731Z,7.70
2018-11-02T01:22:58.679Z,8.20
2018-11-02T01:23:58.668Z,6.80
2018-11-02T01:24:58.659Z,7.30
2018-11-02T01:25:58.675Z,7.80
2018-11-02T01:26:58.635Z,7.60
2018-11-02T01:27:58.634Z,7.20
2018-11-02T01:28:58.615Z,6.90
2018-11-02T01:29:58.602Z,7.10
2018-11-02T01:30:58.592Z,7.30
2018-11-02T01:31:58.581Z,7.20
2018-11-02T01:32:58.584Z,7.40
2018-11-02T01:33:58.557Z,6.30
2018-11-02T01:34:58.547Z,6.60
2018-11-02T01:35:58.536Z,6.90
2018-11-02T01:36:58.542Z,6.90
2018-11-02T01:37:58.527Z,6.40
2018-11-02T01:38:58.513Z,5.90
2018-11-02T01:39:58.492Z,6.40
2018-11-02T01:40:58.481Z,7.00
2018-11-02T01:41:58.471Z,7.10
2018-11-02T01:42:58.492Z,6.40
2018-11-02T01:43:58.448Z,6.00
2018-11-02T01:44:58.439Z,6.30
2018-11-02T01:45:58.426Z,5.80
2018-11-02T01:46:58.417Z,6.40
2018-11-02T01:47:58.403Z,6.50
2018-11-02T01:48:58.407Z,6.40
2018-11-02T01:49:58.382Z,6.50
2018-11-02T01:50:58.371Z,6.70
2018-11-02T01:51:58.374Z,5.90
2018-11-02T01:52:58.359Z,6.50
2018-11-02T01:53:58.352Z,6.30
2018-11-02T01:54:58.327Z,7.50
2018-11-02T01:55:58.317Z,6.70
2018-11-02T01:56:58.306Z,6.70
2018-11-02T01:57:58.294Z,6.60
2018-11-02T01:58:58.298Z,6.80
2018-11-02T01:59:58.287Z,6.80
2018-11-02T02:00:58.262Z,6.20
2018-11-02T02:01:58.251Z,6.70
2018-11-02T02:02:58.245Z,6.90
2018-11-02T02:03:58.244Z,7.40
2018-11-02T02:04:58.221Z,7.00
2018-11-02T02:05:58.207Z,8.40
2018-11-02T02:06:58.199Z,7.40
2018-11-02T02:07:58.186Z,7.60
2018-11-02T02:08:58.205Z,7.20
2018-11-02T02:09:58.169Z,7.50
2018-11-02T02:10:58.154Z,7.20
2018-11-02T02:11:58.145Z,7.00
2018-11-02T02:12:58.139Z,7.10
2018-11-02T02:13:58.123Z,7.20
2018-11-02T02:14:58.124Z,8.00
2018-11-02T02:15:58.098Z,8.50
2018-11-02T02:16:58.089Z,7.70
2018-11-02T02:17:58.077Z,7.20
2018-11-02T02:18:58.066Z,8.30
2018-11-02T02:19:58.106Z,7.30
2018-11-02T02:20:58.050Z,7.50
2018-11-02T02:21:58.034Z,7.20
2018-11-02T02:22:58.050Z,7.70
2018-11-02T02:23:58.013Z,7.20
2018-11-02T02:24:58.002Z,6.90
2018-11-02T02:25:58.044Z,7.90
2018-11-02T02:26:57.980Z,6.90
2018-11-02T02:27:57.971Z,7.70
2018-11-02T02:28:57.959Z,5.60
2018-11-02T02:29:57.948Z,6.60
2018-11-02T02:30:57.950Z,6.90
2018-11-02T02:31:57.926Z,6.40
2018-11-02T02:32:57.947Z,6.30
2018-11-02T02:33:57.911Z,6.30
2018-11-02T02:34:57.892Z,6.60
2018-11-02T02:35:57.882Z,6.30
2018-11-02T02:36:57.871Z,6.90
2018-11-02T02:37:57.862Z,6.80
2018-11-02T02:38:57.865Z,7.30
2018-11-02T02:39:57.839Z,6.60
2018-11-02T02:40:57.828Z,6.00
2018-11-02T02:41:57.819Z,6.70
2018-11-02T02:42:57.805Z,7.00
2018-11-02T02:43:57.810Z,7.00
2018-11-02T02:44:57.782Z,6.30
2018-11-02T02:45:57.773Z,6.80
2018-11-02T02:46:57.776Z,5.50
2018-11-02T02:47:57.764Z,6.00
2018-11-02T02:48:57.741Z,6.20
2018-11-02T02:49:57.729Z,6.40
2018-11-02T02:50:57.721Z,7.30
2018-11-02T02:51:57.709Z,5.90
2018-11-02T02:52:57.728Z,6.60
2018-11-02T02:53:57.686Z,6.60
2018-11-02T02:54:57.676Z,5.80
2018-11-02T02:55:57.662Z,6.30
2018-11-02T02:56:57.667Z,6.20
2018-11-02T02:57:57.641Z,5.80
2018-11-02T02:58:57.646Z,5.60
2018-11-02T02:59:57.620Z,7.20
2018-11-02T03:00:57.611Z,6.00
2018-11-02T03:01:57.599Z,5.50
2018-11-02T03:02:57.602Z,6.00
2018-11-02T03:03:57.577Z,6.10
2018-11-02T03:04:57.613Z,6.40
2018-11-02T03:05:57.558Z,5.40
2018-11-02T03:06:57.544Z,5.70
2018-11-02T03:07:57.534Z,6.00
2018-11-02T03:08:57.522Z,5.20
2018-11-02T03:09:57.512Z,5.60
2018-11-02T03:10:57.707Z,5.10
2018-11-02T03:11:57.492Z,5.00
2018-11-02T03:12:57.480Z,4.40
2018-11-02T03:13:57.470Z,4.80
2018-11-02T03:14:57.459Z,4.70
2018-11-02T03:15:57.446Z,4.70
2018-11-02T03:16:57.450Z,4.80
2018-11-02T03:17:57.424Z,4.20
2018-11-02T03:18:57.417Z,4.40
2018-11-02T03:19:57.403Z,4.50
2018-11-02T03:20:57.394Z,4.20
2018-11-02T03:21:57.467Z,4.20
2018-11-02T03:22:57.369Z,3.80
2018-11-02T03:23:57.362Z,4.10
2018-11-02T03:24:57.349Z,2.80
2018-11-02T03:25:57.337Z,3.80
2018-11-02T03:26:57.327Z,4.50
2018-11-02T03:27:57.345Z,3.80
2018-11-02T03:28:57.304Z,2.90
2018-11-02T03:29:57.313Z,3.90
2018-11-02T03:30:57.284Z,2.80
2018-11-02T03:31:57.272Z,2.80
2018-11-02T03:32:57.275Z,3.00
2018-11-02T03:33:57.256Z,3.60
2018-11-02T03:34:57.241Z,5.40
2018-11-02T03:35:57.228Z,2.90
2018-11-02T03:36:57.222Z,2.80
2018-11-02T03:37:57.221Z,2.00
2018-11-02T03:38:57.198Z,3.20
2018-11-02T03:39:57.183Z,2.50
2018-11-02T03:40:57.203Z,3.10
2018-11-02T03:41:57.162Z,3.00
2018-11-02T03:42:57.150Z,2.60
2018-11-02T03:43:57.139Z,2.90
2018-11-02T03:44:57.133Z,2.40
2018-11-02T03:45:57.118Z,2.80
2018-11-02T03:46:57.121Z,2.30
2018-11-02T03:47:57.110Z,3.20
2018-11-02T03:48:57.084Z,2.10
2018-11-02T03:49:57.074Z,2.60
2018-11-02T03:50:57.091Z,2.70
2018-11-02T03:51:57.052Z,2.70
2018-11-02T03:52:57.082Z,2.30
2018-11-02T03:53:57.033Z,2.70
2018-11-02T03:54:57.028Z,2.50
2018-11-02T03:55:57.008Z,2.20
2018-11-02T03:56:57.140Z,1.90
2018-11-02T03:57:57.045Z,3.40
2018-11-02T03:58:56.991Z,3.20
2018-11-02T03:59:56.979Z,2.70
2018-11-02T04:00:56.954Z,2.50
2018-11-02T04:01:56.942Z,2.70
2018-11-02T04:02:56.931Z,2.20
2018-11-02T04:03:56.959Z,2.00
2018-11-02T04:04:56.910Z,2.50
2018-11-02T04:05:56.898Z,1.90
2018-11-02T04:06:56.887Z,1.50
2018-11-02T04:07:56.877Z,1.80
2018-11-02T04:08:56.868Z,2.50
2018-11-02T04:09:56.867Z,2.80
2018-11-02T04:10:56.842Z,2.00
2018-11-02T04:11:56.834Z,3.50
2018-11-02T04:12:56.821Z,3.80
2018-11-02T04:13:56.811Z,2.40
2018-11-02T04:14:56.812Z,3.00
2018-11-02T04:15:56.789Z,2.50
2018-11-02T04:16:56.792Z,2.40
2018-11-02T04:17:56.768Z,2.30
2018-11-02T04:18:56.758Z,2.00
2018-11-02T04:19:56.760Z,3.70
2018-11-02T04:20:56.733Z,2.40
2018-11-02T04:21:56.722Z,3.30
2018-11-02T04:22:56.711Z,2.10
2018-11-02T04:23:56.701Z,3.00
2018-11-02T04:24:56.703Z,1.70
2018-11-02T04:25:56.679Z,2.60
2018-11-02T04:26:56.667Z,2.20
2018-11-02T04:27:56.657Z,3.50
2018-11-02T04:28:56.646Z,4.80
2018-11-02T04:29:56.648Z,2.30
2018-11-02T04:30:56.686Z,2.60
2018-11-02T04:31:56.614Z,3.10
2018-11-02T04:32:56.614Z,3.60
2018-11-02T04:33:56.608Z,2.30
2018-11-02T04:34:56.646Z,2.70
2018-11-02T04:35:56.569Z,2.90
2018-11-02T04:36:56.560Z,2.60
2018-11-02T04:37:56.551Z,2.60
2018-11-02T04:38:56.536Z,3.20
2018-11-02T04:39:56.539Z,3.10
2018-11-02T04:40:56.514Z,3.10
2018-11-02T04:41:56.505Z,3.40
2018-11-02T04:42:56.511Z,2.70
2018-11-02T04:43:56.484Z,3.20
2018-11-02T04:44:56.483Z,3.00
2018-11-02T04:45:56.459Z,3.00
2018-11-02T04:46:56.447Z,3.30
2018-11-02T04:47:56.437Z,3.50
2018-11-02T04:48:56.440Z,3.40
2018-11-02T04:49:56.414Z,5.00
2018-11-02T04:50:56.478Z,8.10
2018-11-02T04:51:56.393Z,3.20
2018-11-02T04:52:56.397Z,3.70
2018-11-02T04:53:56.384Z,4.00
2018-11-02T04:54:56.364Z,3.60
2018-11-02T04:55:56.350Z,5.50
2018-11-02T04:56:56.352Z,4.50
2018-11-02T04:57:56.328Z,3.80
2018-11-02T04:58:56.318Z,4.00
2018-11-02T04:59:56.328Z,4.20
2018-11-02T05:00:56.293Z,4.30
2018-11-02T05:01:56.298Z,4.00
2018-11-02T05:02:56.272Z,4.00
2018-11-02T05:03:56.262Z,4.10
2018-11-02T05:04:56.250Z,5.40
2018-11-02T05:05:56.239Z,3.40
2018-11-02T05:06:56.254Z,3.80
2018-11-02T05:07:56.220Z,3.60
2018-11-02T05:08:56.219Z,4.20
2018-11-02T05:09:56.336Z,4.70
2018-11-02T05:10:56.184Z,4.80
2018-11-02T05:11:56.174Z,4.10
2018-11-02T05:12:56.177Z,4.30
2018-11-02T05:13:56.173Z,4.60
2018-11-02T05:14:56.166Z,3.50
2018-11-02T05:15:56.129Z,4.30
2018-11-02T05:16:56.118Z,5.40
2018-11-02T05:17:56.122Z,4.70
2018-11-02T05:18:56.096Z,4.50
2018-11-02T05:19:56.087Z,4.80
2018-11-02T05:20:56.076Z,4.50
2018-11-02T05:21:56.062Z,4.40
2018-11-02T05:22:56.108Z,4.80
2018-11-02T05:23:56.042Z,5.10
2018-11-02T05:24:56.029Z,5.20
2018-11-02T05:25:56.019Z,5.00
2018-11-02T05:26:56.007Z,5.00
2018-11-02T05:27:56.013Z,5.10
2018-11-02T05:28:55.985Z,5.40
2018-11-02T05:29:55.987Z,6.50
2018-11-02T05:30:55.966Z,6.20
2018-11-02T05:31:55.955Z,6.40
2018-11-02T05:32:55.941Z,4.90
2018-11-02T05:33:55.961Z,5.80
2018-11-02T05:34:55.919Z,5.00
2018-11-02T05:35:55.915Z,5.30
2018-11-02T05:36:55.897Z,5.80
2018-11-02T05:37:55.885Z,6.50
2018-11-02T05:38:55.875Z,5.90
2018-11-02T05:39:55.878Z,6.20
2018-11-02T05:40:55.860Z,6.30
2018-11-02T05:41:55.843Z,6.00
2018-11-02T05:42:55.833Z,8.10
2018-11-02T05:43:55.844Z,5.00
2018-11-02T05:44:55.821Z,5.70
2018-11-02T05:45:55.802Z,6.00
2018-11-02T05:46:55.788Z,5.00
2018-11-02T05:47:55.776Z,7.50
2018-11-02T05:48:55.790Z,6.20
2018-11-02T05:49:55.803Z,6.30
2018-11-02T05:50:55.744Z,6.10
2018-11-02T05:51:55.735Z,6.20
2018-11-02T05:52:55.721Z,6.20
2018-11-02T05:53:55.716Z,6.20
2018-11-02T05:54:55.711Z,6.10
2018-11-02T05:55:55.702Z,6.90
2018-11-02T05:56:55.679Z,6.70
2018-11-02T05:57:55.678Z,6.80
2018-11-02T05:58:55.657Z,5.40
2018-11-02T05:59:55.646Z,8.50
2018-11-02T06:00:55.662Z,7.10
2018-11-02T06:01:55.624Z,7.50
2018-11-02T06:02:55.612Z,7.00
2018-11-02T06:03:55.601Z,7.20
2018-11-02T06:04:55.613Z,7.40
2018-11-02T06:05:55.582Z,7.80
2018-11-02T06:06:55.581Z,8.30
2018-11-02T06:07:55.585Z,8.60
2018-11-02T06:08:55.548Z,9.20
2018-11-02T06:09:55.536Z,7.70
2018-11-02T06:10:55.535Z,9.00
2018-11-02T06:11:55.552Z,8.60
2018-11-02T06:12:55.505Z,8.00
2018-11-02T06:13:55.492Z,10.00
2018-11-02T06:14:55.482Z,10.80
2018-11-02T06:15:55.470Z,10.20
2018-11-02T06:16:55.502Z,10.60
2018-11-02T06:17:55.458Z,13.20
2018-11-02T06:18:55.437Z,10.30
2018-11-02T06:19:55.425Z,11.50
2018-11-02T06:20:55.417Z,11.50
2018-11-02T06:21:55.414Z,14.50
2018-11-02T06:22:55.393Z,9.60
2018-11-02T06:23:55.384Z,10.50
2018-11-02T06:24:55.370Z,12.00
2018-11-02T06:25:55.360Z,12.60
2018-11-02T06:26:55.374Z,12.80
2018-11-02T06:27:55.339Z,15.90
2018-11-02T06:32:28.450Z,17.10
2018-11-02T06:33:28.395Z,16.10
2018-11-02T06:34:28.384Z,15.50
2018-11-02T06:35:28.371Z,16.20
2018-11-02T06:36:28.382Z,15.50
2018-11-02T06:37:28.361Z,19.70
2018-11-02T06:38:28.368Z,16.30
2018-11-02T06:39:28.329Z,15.30
2018-11-02T06:40:28.334Z,16.40
2018-11-02T06:41:28.306Z,18.60
2018-11-02T06:42:28.296Z,18.80
2018-11-02T06:43:28.315Z,18.40
2018-11-02T06:44:28.277Z,16.30
2018-11-02T06:45:28.272Z,18.30
2018-11-02T06:46:28.252Z,18.90
2018-11-02T06:47:28.241Z,17.80
2018-11-02T06:48:28.231Z,18.00
2018-11-02T06:49:28.245Z,17.60
2018-11-02T06:50:28.210Z,17.60
2018-11-02T06:51:28.198Z,18.10
2018-11-02T06:52:28.187Z,19.40
2018-11-02T06:53:28.175Z,18.60
2018-11-02T06:54:28.171Z,16.70
2018-11-02T06:55:28.188Z,20.10
2018-11-02T06:56:28.142Z,19.90
2018-11-02T06:57:28.132Z,18.20
2018-11-02T06:58:28.174Z,20.70
2018-11-02T06:59:28.231Z,22.50
2018-11-02T07:00:28.222Z,22.00
2018-11-02T07:01:28.089Z,21.20
2018-11-02T07:02:28.078Z,22.60
2018-11-02T07:03:28.068Z,25.90
2018-11-02T07:04:28.070Z,20.20
2018-11-02T07:05:28.044Z,19.50
2018-11-02T07:06:28.057Z,21.20
2018-11-02T07:07:28.244Z,20.80
2018-11-02T07:08:28.179Z,20.00
2018-11-02T07:09:28.040Z,21.10
2018-11-02T07:10:27.988Z,19.50
2018-11-02T07:11:27.981Z,20.90
2018-11-02T07:12:27.966Z,19.80
2018-11-02T07:13:27.956Z,23.00
2018-11-02T07:14:27.948Z,21.30
2018-11-02T07:15:27.949Z,20.20
2018-11-02T07:16:27.923Z,22.00
2018-11-02T07:17:27.928Z,19.10
2018-11-02T07:18:27.904Z,20.50
2018-11-02T07:19:27.891Z,22.80
2018-11-02T07:20:27.906Z,22.10
2018-11-02T07:21:27.868Z,19.30
2018-11-02T07:22:27.860Z,22.70
2018-11-02T07:23:27.847Z,19.90
2018-11-02T07:24:27.837Z,18.40
2018-11-02T07:25:27.829Z,20.10
2018-11-02T07:26:27.848Z,21.10
2018-11-02T07:27:27.829Z,21.70
2018-11-02T07:28:27.792Z,19.60
2018-11-02T07:29:27.782Z,20.50
2018-11-02T07:30:27.770Z,18.20
2018-11-02T07:31:27.762Z,18.80
2018-11-02T07:32:27.785Z,20.40
2018-11-02T07:33:27.738Z,22.90
2018-11-02T07:34:27.807Z,17.40
2018-11-02T07:35:27.715Z,20.30
2018-11-02T07:36:27.721Z,20.40
2018-11-02T07:37:27.705Z,19.00
2018-11-02T07:38:27.682Z,19.90
2018-11-02T07:39:27.670Z,19.10
2018-11-02T07:40:27.660Z,19.60
2018-11-02T07:41:27.649Z,18.90
2018-11-02T07:42:27.652Z,19.50
2018-11-02T07:43:27.628Z,20.40
2018-11-02T07:44:27.632Z,18.90
2018-11-02T07:45:27.606Z,20.10
2018-11-02T07:46:27.594Z,20.00
2018-11-02T07:47:27.628Z,22.50
2018-11-02T07:48:27.600Z,21.50
2018-11-02T07:49:27.615Z,19.40
2018-11-02T07:50:27.551Z,20.20
2018-11-02T07:51:27.542Z,20.40
2018-11-02T07:52:27.532Z,18.30
2018-11-02T07:53:27.534Z,19.90
2018-11-02T07:54:27.508Z,23.90
2018-11-02T07:55:27.495Z,21.50
2018-11-02T07:56:27.485Z,22.10
2018-11-02T07:57:27.475Z,20.20
2018-11-02T07:58:27.477Z,23.00
2018-11-02T07:59:27.466Z,26.60
2018-11-02T08:00:27.439Z,18.70
2018-11-02T08:01:27.430Z,23.10
2018-11-02T08:02:27.433Z,27.70
2018-11-02T08:03:27.408Z,24.10
2018-11-02T08:04:27.401Z,24.50
2018-11-02T08:05:27.400Z,25.10
2018-11-02T08:06:27.388Z,32.60
2018-11-02T08:07:27.364Z,25.60
2018-11-02T08:08:27.385Z,27.50
2018-11-02T08:09:27.341Z,24.50
2018-11-02T08:10:27.331Z,27.30
2018-11-02T08:11:27.356Z,30.30
2018-11-02T08:12:27.308Z,30.10
2018-11-02T08:13:27.301Z,29.50
2018-11-02T08:14:27.298Z,28.00
2018-11-02T08:15:27.308Z,29.60
2018-11-02T08:16:27.265Z,34.90
2018-11-02T08:17:27.264Z,31.80
2018-11-02T08:18:27.243Z,31.70
2018-11-02T08:19:27.233Z,31.90
2018-11-02T08:20:27.220Z,29.60
2018-11-02T08:21:27.240Z,30.80
2018-11-02T08:22:27.199Z,32.30
2018-11-02T08:23:27.186Z,31.90
2018-11-02T08:24:27.194Z,35.50
2018-11-02T08:25:27.166Z,32.10
2018-11-02T08:26:27.157Z,30.70
2018-11-02T08:27:27.157Z,31.90
2018-11-02T08:28:27.131Z,32.00
2018-11-02T08:29:27.121Z,31.60
2018-11-02T08:30:27.120Z,29.90
2018-11-02T08:31:27.099Z,28.70
2018-11-02T08:32:27.119Z,30.80
2018-11-02T08:33:27.077Z,29.10
2018-11-02T08:34:27.065Z,27.90
2018-11-02T08:35:27.060Z,29.20
2018-11-02T08:36:27.044Z,30.90
2018-11-02T08:37:27.032Z,30.20
2018-11-02T08:38:27.036Z,30.80
2018-11-02T08:39:27.012Z,31.30
2018-11-02T08:40:27.002Z,31.60
2018-11-02T08:41:27.368Z,30.50
2018-11-02T08:42:26.978Z,28.50
2018-11-02T08:43:26.988Z,27.10
2018-11-02T08:44:26.954Z,30.80
2018-11-02T08:45:26.945Z,30.30
2018-11-02T08:46:26.959Z,28.40
2018-11-02T08:47:26.924Z,27.60
2018-11-02T08:48:26.929Z,28.00
2018-11-02T08:49:26.902Z,26.60
2018-11-02T08:50:26.889Z,27.10
2018-11-02T08:51:26.880Z,27.90
2018-11-02T08:52:26.984Z,31.30
2018-11-02T08:53:26.872Z,25.20
2018-11-02T08:54:26.846Z,28.50
2018-11-02T08:55:26.836Z,28.60
2018-11-02T08:56:26.827Z,28.80
2018-11-02T08:57:26.815Z,24.60
2018-11-02T08:58:27.026Z,25.70
2018-11-02T08:59:26.880Z,24.30
2018-11-02T09:00:26.781Z,26.20
2018-11-02T09:01:26.770Z,27.60
2018-11-02T09:02:26.764Z,24.20
2018-11-02T09:03:26.749Z,22.70
2018-11-02T09:04:26.764Z,24.60
2018-11-02T09:05:26.729Z,25.20
2018-11-02T09:06:26.716Z,22.00
2018-11-02T09:07:26.704Z,25.50
2018-11-02T09:08:26.694Z,24.70
2018-11-02T09:09:26.682Z,25.80
2018-11-02T09:10:26.704Z,23.70
2018-11-02T09:11:26.660Z,26.90
2018-11-02T09:12:26.652Z,24.40
2018-11-02T09:13:26.653Z,22.00
2018-11-02T09:14:26.627Z,22.20
2018-11-02T09:15:26.631Z,21.60
2018-11-02T09:16:26.607Z,20.00
2018-11-02T09:17:26.596Z,22.40
2018-11-02T09:18:26.587Z,21.30
2018-11-02T09:19:26.642Z,23.60
2018-11-02T09:20:26.579Z,22.10
2018-11-02T09:21:26.915Z,22.70
2018-11-02T09:22:26.542Z,20.90
2018-11-02T09:23:26.531Z,18.40
2018-11-02T09:24:26.519Z,19.70
2018-11-02T09:25:26.512Z,22.60
2018-11-02T09:26:26.501Z,20.10
2018-11-02T09:27:26.521Z,20.90
2018-11-02T09:28:26.478Z,19.80
2018-11-02T09:29:26.471Z,20.40
2018-11-02T09:30:26.457Z,20.70
2018-11-02T09:31:26.445Z,22.90
2018-11-02T09:32:26.449Z,21.80
2018-11-02T09:33:26.425Z,22.80
2018-11-02T09:34:26.413Z,23.00
2018-11-02T09:35:26.402Z,21.40
2018-11-02T09:36:26.438Z,19.10
2018-11-02T09:37:26.380Z,20.60
2018-11-02T09:38:26.370Z,21.50
2018-11-02T09:39:26.359Z,20.50
2018-11-02T09:40:26.477Z,22.40
2018-11-02T09:41:26.337Z,22.90
2018-11-02T09:42:26.360Z,20.70
2018-11-02T09:43:26.315Z,21.10
2018-11-02T09:44:26.306Z,19.40
2018-11-02T09:45:26.294Z,20.50
2018-11-02T09:46:26.293Z,21.80
2018-11-02T09:47:26.272Z,20.50
2018-11-02T09:48:26.261Z,21.10
2018-11-02T09:49:26.263Z,20.10
2018-11-02T09:50:26.240Z,21.00
2018-11-02T09:51:26.247Z,20.90
2018-11-02T09:52:26.232Z,19.20
2018-11-02T09:53:26.207Z,20.50
2018-11-02T09:54:26.226Z,22.50
2018-11-02T09:55:26.186Z,19.00
2018-11-02T09:56:26.175Z,19.50
2018-11-02T09:57:26.182Z,20.30
2018-11-02T09:58:26.154Z,20.50
2018-11-02T09:59:26.143Z,21.10
2018-11-02T10:00:26.142Z,19.60
2018-11-02T10:01:26.120Z,17.50
2018-11-02T10:02:26.109Z,18.60
2018-11-02T10:03:26.112Z,17.80
2018-11-02T10:04:26.088Z,18.50
2018-11-02T10:05:26.077Z,18.90
2018-11-02T10:06:26.066Z,18.90
2018-11-02T10:07:26.055Z,19.90
2018-11-02T10:08:26.111Z,19.10
2018-11-02T10:09:26.033Z,18.60
2018-11-02T10:10:26.023Z,19.40
2018-11-02T10:11:26.027Z,20.60
2018-11-02T10:12:26.001Z,21.50
2018-11-02T10:13:26.019Z,21.50
2018-11-02T10:14:25.981Z,21.10
2018-11-02T10:15:25.968Z,21.70
2018-11-02T10:16:25.958Z,19.00
2018-11-02T10:17:25.947Z,18.30
2018-11-02T10:18:25.935Z,21.30
2018-11-02T10:19:25.939Z,20.40
2018-11-02T10:20:25.913Z,18.20
2018-11-02T10:21:25.903Z,20.70
2018-11-02T10:22:25.922Z,19.70
2018-11-02T10:23:25.880Z,18.20
2018-11-02T10:24:25.868Z,16.00
2018-11-02T10:25:25.860Z,18.10
2018-11-02T10:26:25.848Z,16.60
2018-11-02T10:27:25.837Z,15.80
2018-11-02T10:28:25.840Z,15.70
2018-11-02T10:29:25.828Z,16.30
2018-11-02T10:30:25.804Z,14.60
2018-11-02T10:31:25.793Z,15.40
2018-11-02T10:32:25.781Z,14.70
2018-11-02T10:33:25.772Z,17.00
2018-11-02T10:34:25.792Z,15.70
2018-11-02T10:35:25.856Z,16.20
2018-11-02T10:36:25.740Z,14.70
2018-11-02T10:37:25.727Z,14.90
2018-11-02T10:38:25.716Z,13.70
2018-11-02T10:39:25.709Z,12.30
2018-11-02T10:40:25.726Z,11.80
2018-11-02T10:41:25.683Z,12.70
2018-11-02T10:42:25.673Z,11.40
2018-11-02T10:43:25.662Z,14.00
2018-11-02T10:44:25.728Z,13.80
2018-11-02T10:45:25.660Z,13.20
2018-11-02T10:46:25.642Z,14.70
2018-11-02T10:47:25.618Z,13.80
2018-11-02T10:48:25.607Z,12.60
2018-11-02T10:49:25.700Z,14.00
2018-11-02T10:50:25.584Z,13.50
2018-11-02T10:51:25.583Z,11.50
2018-11-02T10:52:25.562Z,10.40
2018-11-02T10:53:25.552Z,11.50
2018-11-02T10:54:25.553Z,12.50
2018-11-02T10:55:25.544Z,12.70
2018-11-02T10:56:25.567Z,10.70
2018-11-02T10:57:25.509Z,12.20
2018-11-02T10:58:25.497Z,13.00
2018-11-02T10:59:25.487Z,11.60
2018-11-02T11:00:25.484Z,12.80
2018-11-02T11:01:25.617Z,12.90
2018-11-02T11:02:25.484Z,11.20
2018-11-02T11:03:25.443Z,11.30
2018-11-02T11:04:25.431Z,12.00
2018-11-02T11:05:25.482Z,13.00
2018-11-02T11:06:25.411Z,11.60
2018-11-02T11:07:25.399Z,9.20
2018-11-02T11:08:25.400Z,9.30
2018-11-02T11:09:25.376Z,11.00
2018-11-02T11:10:25.393Z,12.10
2018-11-02T11:11:25.367Z,11.30
2018-11-02T11:12:25.467Z,11.30
2018-11-02T11:13:25.754Z,10.50
2018-11-02T11:14:25.323Z,10.40
2018-11-02T11:15:25.312Z,10.90
2018-11-02T11:16:25.337Z,13.20
2018-11-02T11:17:25.292Z,10.40
2018-11-02T11:18:25.293Z,11.10
2018-11-02T11:19:25.268Z,12.10
2018-11-02T11:20:25.261Z,12.60
2018-11-02T11:21:25.382Z,10.50
2018-11-02T11:22:25.235Z,12.80
2018-11-02T11:23:25.225Z,13.20
2018-11-02T11:24:25.216Z,11.50
2018-11-02T11:25:25.209Z,11.90
2018-11-02T11:26:25.205Z,13.80
2018-11-02T11:27:25.183Z,13.40
2018-11-02T11:28:25.183Z,14.30
2018-11-02T11:29:25.252Z,14.00
2018-11-02T11:30:25.150Z,13.00
2018-11-02T11:31:25.139Z,12.90
2018-11-02T11:32:25.141Z,12.90
2018-11-02T11:33:25.131Z,13.50
2018-11-02T11:34:25.106Z,13.10
2018-11-02T11:35:25.096Z,12.20
2018-11-02T11:36:25.086Z,13.80
2018-11-02T11:37:25.092Z,12.40
2018-11-02T11:38:25.070Z,12.10
2018-11-02T11:39:25.058Z,13.10
2018-11-02T11:40:25.042Z,14.40
2018-11-02T11:41:25.029Z,10.00
2018-11-02T11:42:25.033Z,10.80
2018-11-02T11:43:25.021Z,11.30
2018-11-02T11:44:24.996Z,11.60
2018-11-02T11:45:25.001Z,13.30
2018-11-02T11:46:24.975Z,9.10
2018-11-02T11:47:24.965Z,11.30
2018-11-02T11:48:24.960Z,9.40
2018-11-02T11:49:24.961Z,12.00
2018-11-02T11:50:24.933Z,11.60
2018-11-02T11:51:24.936Z,11.00
2018-11-02T11:52:24.910Z,11.60
2018-11-02T11:53:24.900Z,12.10
2018-11-02T11:54:24.901Z,12.60
2018-11-02T11:55:24.877Z,11.40
2018-11-02T11:56:24.880Z,13.30
2018-11-02T11:57:24.854Z,12.20
2018-11-02T11:58:24.845Z,12.70
2018-11-02T11:59:24.837Z,9.80
2018-11-02T12:00:24.836Z,10.70
2018-11-02T12:01:24.812Z,9.60
2018-11-02T12:02:24.912Z,10.80
2018-11-02T12:03:24.791Z,11.20
2018-11-02T12:04:24.826Z,8.90
2018-11-02T12:05:24.784Z,9.70
2018-11-02T12:06:24.758Z,9.60
2018-11-02T12:07:24.788Z,9.90
2018-11-02T12:08:24.740Z,12.10
2018-11-02T12:09:24.726Z,8.80
2018-11-02T12:10:24.819Z,8.10
2018-11-02T12:11:24.703Z,12.30
2018-11-02T12:12:24.693Z,7.90
2018-11-02T12:13:24.683Z,11.60
2018-11-02T12:14:24.675Z,13.90
2018-11-02T12:15:24.677Z,13.60
2018-11-02T12:16:24.649Z,12.80
2018-11-02T12:17:24.639Z,13.70
2018-11-02T12:18:24.655Z,12.40
2018-11-02T12:19:24.619Z,12.40
2018-11-02T12:20:24.608Z,14.10
2018-11-02T12:21:24.632Z,13.70
2018-11-02T12:22:24.588Z,15.00
2018-11-02T12:23:24.629Z,15.90
2018-11-02T12:24:24.574Z,15.80
2018-11-02T12:25:24.564Z,15.40
2018-11-02T12:26:24.542Z,14.10
2018-11-02T12:27:24.531Z,14.30
2018-11-02T12:28:24.653Z,15.20
2018-11-02T12:29:24.524Z,14.70
2018-11-02T12:30:24.517Z,15.10
2018-11-02T12:31:24.488Z,16.00
2018-11-02T12:32:24.479Z,14.60
2018-11-02T12:33:24.465Z,15.70
2018-11-02T12:34:24.477Z,12.90
2018-11-02T12:35:24.459Z,12.90
2018-11-02T12:36:24.434Z,11.90
2018-11-02T12:37:24.421Z,12.70
2018-11-02T12:38:24.424Z,12.40
2018-11-02T12:39:24.401Z,12.40
2018-11-02T12:40:24.465Z,11.70
2018-11-02T12:41:24.380Z,11.70
2018-11-02T12:42:24.379Z,11.40
2018-11-02T12:43:24.388Z,11.20
2018-11-02T12:44:24.357Z,12.30
2018-11-02T12:45:24.350Z,10.00
2018-11-02T12:46:24.328Z,9.60
2018-11-02T12:47:24.314Z,9.30
2018-11-02T12:48:24.389Z,12.30
2018-11-02T12:49:24.761Z,11.20
2018-11-02T12:50:24.449Z,12.50
2018-11-02T12:51:24.270Z,11.70
2018-11-02T12:52:24.260Z,10.90
2018-11-02T12:53:24.249Z,8.40
2018-11-02T12:54:24.262Z,7.60
2018-11-02T12:55:24.227Z,8.30
2018-11-02T12:56:24.216Z,7.40
2018-11-02T12:57:24.233Z,7.80
2018-11-02T12:58:24.197Z,10.00
2018-11-02T12:59:24.185Z,10.70
2018-11-02T13:00:24.191Z,9.40
2018-11-02T13:01:24.177Z,8.90
2018-11-02T13:02:24.151Z,9.70
2018-11-02T13:03:24.155Z,9.70
2018-11-02T13:04:24.129Z,7.70
2018-11-02T13:05:24.118Z,6.60
2018-11-02T13:06:24.108Z,5.70
2018-11-02T13:07:24.097Z,3.90